Skip Navigation Links
NOAA logo - Click to go to the NOAA homepage
NOAA's National Weather Service
Alaska Aviation Weather Unit
  NWS logo - Click to go to the NWS homepage
Left Navbar Graphic     21 AKDT = 05 GMT

   
NOAA is celebrating 200 years of science, service, and stewardship. Visit the NOAA 200th celebration Web site to learn more.
USA.gov is the U.S. Government's official Web portal to all Federal, state and local government Web resources and services.
Facebook
NWS on Facebook

Important Change Regarding the AAWU Web Presence

 

Over the last several months, the AAWU has been working to navigate its webpages to a nationally supported server. Security, as well as other needs, have necessitated the change.  In the process, we have made an effort to enhance the functionality of our website, as well as some of our products. As of June 27, 2017, aawu.arh.noaa.gov will be discontinued. The new AAWU web address is weather.gov/aawu. It is now live and will run in-parallel with the old site until it is discontinued. Please send any feedback or questions regarding the new webpages to nws.ar.aawu.webauthors@noaa.gov.  Thank you for your patience during this time of transition.
AAWU Home :: Display TAF Add Bookmark
TAF CYXY 242338Z 2500/2524 16012KT P6SM SCT060 BKN120
      TEMPO 2500/2506 P6SM -SHRA FEW040 BKN080
      BECMG 2504/2506 16007KT
     FM250600 16007KT P6SM SCT070 SCT200
      TEMPO 2506/2515 BKN070 BKN200
     FM252200 25008KT P6SM VCSH BKN090 RMK
      NXT FCST BY 250600Z=

METAR CYXY 242300Z 15012KT 40SM -SHRA FEW030 SCT065TCU OVC150 12/06 A3010 RMK SF2TCU2AC4 SLP217 DENSITY ALT 2400FT= CYXY 242314Z 16011KT 40SM FEW030 SCT065TCU OVC150 13/06 A3010 RMK SF2TCU2AC4 SLP215 DENSITY ALT 2400FT= METAR CYXY 250000Z 14010KT 40SM FEW030 SCT065TCU OVC150 13/06 A3008 RMK SF2TCU2AC4 SLP210 DENSITY ALT 2500FT= METAR CYXY 250100Z 15007KT 40SM SCT065TCU BKN150 14/06 A3006 RMK TCU4AC3 SLP203 DENSITY ALT 2600FT= METAR CYXY 250200Z 15009KT 40SM SCT065TCU BKN150 14/06 A3005 RMK TCU4AC3 SLP199 DENSITY ALT 2600FT= METAR CYXY 250300Z 14006KT 110V180 40SM SCT065TCU BKN150 14/06 A3004 RMK TCU4AC3 SLP193 DENSITY ALT 2600FT= METAR CYXY 250400Z 15010KT 40SM BKN055 BKN110 14/06 A3003 RMK SC5AC2 CVCTV CLD EMBD SLP189 DENSITY ALT 2600FT= METAR CYXY 250500Z 14009KT 40SM BKN060 BKN110 13/06 A3003 RMK SC6AC1 SLP187 DENSITY ALT 2500FT=
 Alaska TAF Map

NOAA's National Weather Service
Alaska Aviation Weather Unit
6930 Sand Lake Road
Anchorage, AK 99502-1845
Disclaimer
Credits
Glossary
Privacy Policy
About Us
Career Opportunities
Contact AAWU Internet Services Site last modified: April, 17th 2012